• Join FlightAware (Why Join?)
  • Login
  • US Flag 
06:05AM EDT


 

Airport Tracker/Info


-or-


 

Live Flight TrackerFlight Track Log ✈ ASQ5955 ✈ 03-May-2013 ✈ KORD - KXNA

Flight Track Log - Related Links

Times and Time Zones

All times are in EDT time to prevent confusion due to time zone crossing. See the ASQ5955 flight status page for this flight to view local times or setup timezone preferences in your user account.

Time Position Orientation Groundspeed Altitude Reporting Facility
EDT Latitude Longitude Course Direction KTS MPH feet Rate Location/Type
09:21AM 42.0297 -87.8275 194° South 257 296 36,000  Level Chicago Center
09:22AM 42.0000 -87.7667 123° Southeast 248 285 4,900 -10,140 Descending Chicago TRACON
09:24AM 41.8681 -87.8156 195° South 241 277 4,900 360 Level Chicago Center
09:25AM 41.8056 -87.8492 202° Southwest 242 278 6,100 1,740 Climbing Chicago Center
09:26AM 41.7456 -87.8933 209° Southwest 251 289 8,600 2,580 Climbing Chicago Center
09:27AM 41.4090 -88.1581 194° South  Level FlightAware Approximate
09:27AM 41.6836 -87.9450 212° Southwest 265 305 11,500  Level Chicago Center
09:29AM 41.6025 -87.9978 206° Southwest 275 316 13,900 1,800 Climbing Chicago Center
09:30AM 41.5242 -88.0397 202° Southwest 303 349 15,300 1,320 Climbing Chicago Center
09:31AM 41.4467 -88.0806 202° Southwest 322 371 16,700 1,500 Climbing Chicago Center
09:32AM 41.3392 -88.1372 202° Southwest 342 394 18,400 1,500 Climbing Chicago Center
09:33AM 41.2472 -88.1856 202° Southwest 354 407 19,900 1,500 Climbing Chicago Center
09:34AM 41.1533 -88.2356 202° Southwest 361 415 21,500 1,560 Climbing Chicago Center
09:35AM 41.0583 -88.2856 202° Southwest 366 421 23,200 1,560 Climbing Chicago Center
09:36AM 40.9628 -88.3342 201° Southwest 369 425 24,800 1,560 Climbing Chicago Center
09:37AM 40.8681 -88.3833 201° Southwest 367 422 26,500 1,740 Climbing Chicago Center
09:38AM 40.7558 -88.4419 202° Southwest 363 418 28,400 1,740 Climbing Chicago Center
09:39AM 40.6644 -88.4894 202° Southwest 357 411 30,100 1,560 Climbing Chicago Center
09:40AM 40.5728 -88.5350 201° Southwest 355 409 31,600 1,380 Climbing Chicago Center
09:41AM 40.4786 -88.5850 202° Southwest 363 418 33,000 1,440 Climbing Chicago Center
09:42AM 40.3750 -88.6364 201° Southwest 368 423 34,600 1,380 Climbing Chicago Center
09:43AM 40.2881 -88.7050 211° Southwest 372 428 35,900 660 Climbing Chicago Center
09:44AM 40.2128 -88.8014 224° Southwest 379 436 36,000  Climbing Chicago Center
09:45AM 40.1325 -88.9025 224° Southwest 392 451 36,000  Level Chicago Center
09:46AM 40.0678 -88.9850 224° Southwest 395 455 36,000  Level Kansas City Center
09:47AM 39.9883 -89.0842 224° Southwest 394 453 36,000  Level Kansas City Center
09:48AM 39.9100 -89.1839 224° Southwest 393 452 36,000  Level Kansas City Center
09:49AM 39.8317 -89.2831 224° Southwest 391 450 36,000  Level Kansas City Center
09:50AM 39.7528 -89.3825 224° Southwest 392 451 36,000  Level Kansas City Center
09:51AM 39.6797 -89.4736 224° Southwest 392 451 36,000  Level Kansas City Center
09:52AM 39.5856 -89.5889 223° Southwest 390 449 36,000  Level Kansas City Center
09:53AM 39.5081 -89.6883 225° Southwest 391 450 36,000  Level Kansas City Center
09:54AM 39.4294 -89.7861 224° Southwest 392 451 36,000  Level Kansas City Center
09:55AM 39.3353 -89.9025 224° Southwest 392 451 36,000  Level Kansas City Center
09:56AM 39.2567 -89.9989 224° Southwest 392 451 36,000  Level Kansas City Center
09:57AM 39.1783 -90.0953 224° Southwest 391 450 36,000  Level Kansas City Center
09:58AM 39.0839 -90.2117 224° Southwest 392 451 36,000  Level Kansas City Center
09:59AM 39.0053 -90.3081 224° Southwest 394 453 36,000  Level Kansas City Center
10:00AM 38.9244 -90.4053 223° Southwest 392 451 36,000  Level Kansas City Center
10:01AM 38.8469 -90.5042 225° Southwest 392 451 36,000  Level Kansas City Center
10:02AM 38.7728 -90.6131 229° Southwest 401 461 36,000  Level Kansas City Center
10:03AM 38.6936 -90.7325 230° Southwest 399 459 36,000  Level Kansas City Center
10:04AM 38.6236 -90.8369 229° Southwest 392 451 36,000  Level Kansas City Center
10:05AM 38.5542 -90.9406 229° Southwest 388 447 36,000  Level Kansas City Center
10:06AM 38.4833 -91.0450 229° Southwest 390 449 36,000  Level Kansas City Center
10:07AM 38.4125 -91.1497 229° Southwest 391 450 36,000  Level Kansas City Center
10:08AM 38.3406 -91.2544 229° Southwest 393 452 36,000 -300 Level Kansas City Center
10:10AM 38.2686 -91.3611 229° Southwest 396 456 35,400 -1,020 Descending Kansas City Center
10:11AM 38.1847 -91.4842 229° Southwest 394 453 34,000 -1,320 Descending Kansas City Center
10:12AM 38.1122 -91.5892 229° Southwest 392 451 32,700 -1,320 Descending Kansas City Center
10:13AM 38.0400 -91.6908 228° Southwest 387 445 31,400 -1,500 Descending Kansas City Center
10:14AM 37.9722 -91.7942 230° Southwest 381 438 29,700 -1,620 Descending Kansas City Center
10:15AM 37.8992 -91.8983 228° Southwest 385 443 28,100 -1,620 Descending Kansas City Center
10:16AM 37.8239 -92.0050 228° Southwest 394 453 26,400 -1,620 Descending Kansas City Center
10:17AM 37.7519 -92.1086 229° Southwest 402 463 24,800 -1,200 Descending Kansas City Center
10:18AM 37.6636 -92.2347 229° Southwest 402 463 24,000 -420 Descending Kansas City Center
10:19AM 37.5992 -92.3281 229° Southwest 403 464 24,000  Level Kansas City Center
10:20AM 37.5086 -92.4578 229° Southwest 405 466 24,000  Level Kansas City Center
10:21AM 37.4322 -92.5653 228° Southwest 407 468 24,000  Level Kansas City Center
10:22AM 37.3556 -92.6711 228° Southwest 407 468 24,000  Level Kansas City Center
10:23AM 37.2786 -92.7767 228° Southwest 406 467 24,000  Level Kansas City Center
10:24AM 37.2019 -92.8842 228° Southwest 408 470 24,000 -900 Level Kansas City Center
10:25AM 37.1250 -92.9925 228° Southwest 412 474 22,200 -1,860 Descending Kansas City Center
10:26AM 37.0500 -93.0947 227° Southwest 404 465 20,300 -1,860 Descending Kansas City Center
10:27AM 36.9819 -93.1967 230° Southwest 392 451 18,400 -1,860 Descending Kansas City Center
10:28AM 36.9133 -93.2908 228° Southwest 378 435 16,600 -1,860 Descending Kansas City Center
10:29AM 36.8428 -93.3747 224° Southwest 367 422 14,700 -1,860 Descending Kansas City Center
10:30AM 36.7753 -93.4592 225° Southwest 356 410 12,900 -1,860 Descending Kansas City Center
10:31AM 36.7053 -93.5481 226° Southwest 312 359 11,000 -1,380 Descending Kansas City Center
10:32AM 36.6511 -93.6153 225° Southwest 282 325 10,100 -780 Descending Kansas City Center
10:33AM 36.5944 -93.6869 225° Southwest 289 333 9,500 -900 Descending Kansas City Center
10:34AM 36.5383 -93.7561 225° Southwest 287 330 8,300 -1,080 Descending Kansas City Center
10:35AM 36.4867 -93.8228 226° Southwest 283 326 7,300 -660 Descending Kansas City Center
10:36AM 36.4189 -93.9058 225° Southwest 283 326 7,000 -180 Descending Kansas City Center
10:37AM 36.3644 -93.9736 225° Southwest 278 320 7,000 -60 Level Kansas City Center
10:38AM 36.3075 -94.0456 226° Southwest 283 326 6,900 -960 Descending Kansas City Center
10:39AM 36.2533 -94.1131 225° Southwest 283 326 5,100 -1,140 Descending Kansas City Center
10:40AM 36.1861 -94.1436 200° South 286 329 4,600 -540 Descending Kansas City Center
10:41AM 36.1133 -94.1292 171° South 284 327 4,100 -300 Descending Kansas City Center
10:42AM 36.0928 -94.1964 249° West 247 284 4,100  Level Kansas City Center